sensor_id;sensor_type;location;lat;lon;timestamp;temperature;humidity
9271;DHT22;4673;53.458;9.940;2023-07-02T00:00:59;13.90;99.70
9271;DHT22;4673;53.458;9.940;2023-07-02T00:03:24;13.80;99.70
9271;DHT22;4673;53.458;9.940;2023-07-02T00:05:50;13.80;99.90
9271;DHT22;4673;53.458;9.940;2023-07-02T00:08:21;13.80;99.90
9271;DHT22;4673;53.458;9.940;2023-07-02T00:10:46;13.80;99.90
9271;DHT22;4673;53.458;9.940;2023-07-02T00:13:12;13.80;99.90
9271;DHT22;4673;53.458;9.940;2023-07-02T00:15:38;13.80;99.90
9271;DHT22;4673;53.458;9.940;2023-07-02T00:18:04;13.80;99.90
9271;DHT22;4673;53.458;9.940;2023-07-02T00:20:29;13.80;99.90
9271;DHT22;4673;53.458;9.940;2023-07-02T00:22:55;13.80;99.90
9271;DHT22;4673;53.458;9.940;2023-07-02T00:25:21;13.70;99.90
9271;DHT22;4673;53.458;9.940;2023-07-02T00:27:47;13.70;99.90
9271;DHT22;4673;53.458;9.940;2023-07-02T00:30:13;13.70;99.90
9271;DHT22;4673;53.458;9.940;2023-07-02T00:32:39;13.70;99.90
9271;DHT22;4673;53.458;9.940;2023-07-02T00:35:05;13.80;99.90
9271;DHT22;4673;53.458;9.940;2023-07-02T00:37:30;13.90;99.90
9271;DHT22;4673;53.458;9.940;2023-07-02T00:39:56;14.00;99.90
9271;DHT22;4673;53.458;9.940;2023-07-02T00:42:22;14.10;99.90
9271;DHT22;4673;53.458;9.940;2023-07-02T00:44:49;14.10;99.90
9271;DHT22;4673;53.458;9.940;2023-07-02T00:47:16;14.10;99.90
9271;DHT22;4673;53.458;9.940;2023-07-02T00:49:42;14.20;99.90
9271;DHT22;4673;53.458;9.940;2023-07-02T00:52:07;14.20;99.90
9271;DHT22;4673;53.458;9.940;2023-07-02T00:54:33;14.30;99.90
9271;DHT22;4673;53.458;9.940;2023-07-02T00:56:59;14.30;99.90
9271;DHT22;4673;53.458;9.940;2023-07-02T00:59:29;14.30;99.90
9271;DHT22;4673;53.458;9.940;2023-07-02T01:01:56;14.30;99.90
9271;DHT22;4673;53.458;9.940;2023-07-02T01:04:22;14.40;99.90
9271;DHT22;4673;53.458;9.940;2023-07-02T01:06:53;14.40;99.90
9271;DHT22;4673;53.458;9.940;2023-07-02T01:09:26;14.40;99.90
9271;DHT22;4673;53.458;9.940;2023-07-02T01:12:18;14.40;99.90
9271;DHT22;4673;53.458;9.940;2023-07-02T01:14:52;14.40;99.90
9271;DHT22;4673;53.458;9.940;2023-07-02T01:17:19;14.30;99.70
9271;DHT22;4673;53.458;9.940;2023-07-02T01:22:17;14.20;99.60
9271;DHT22;4673;53.458;9.940;2023-07-02T01:24:44;14.20;99.70
9271;DHT22;4673;53.458;9.940;2023-07-02T01:27:12;14.20;99.70
9271;DHT22;4673;53.458;9.940;2023-07-02T01:29:37;14.30;99.80
9271;DHT22;4673;53.458;9.940;2023-07-02T01:32:03;14.30;99.70
9271;DHT22;4673;53.458;9.940;2023-07-02T01:34:29;14.30;99.70
9271;DHT22;4673;53.458;9.940;2023-07-02T01:36:55;14.30;99.60
9271;DHT22;4673;53.458;9.940;2023-07-02T01:39:20;14.30;99.60
9271;DHT22;4673;53.458;9.940;2023-07-02T01:41:54;14.40;99.50
9271;DHT22;4673;53.458;9.940;2023-07-02T01:44:21;14.40;99.40
9271;DHT22;4673;53.458;9.940;2023-07-02T01:46:47;14.40;99.20
9271;DHT22;4673;53.458;9.940;2023-07-02T01:49:18;14.40;99.10
9271;DHT22;4673;53.458;9.940;2023-07-02T01:51:55;14.40;98.90
9271;DHT22;4673;53.458;9.940;2023-07-02T01:54:22;14.30;98.70
9271;DHT22;4673;53.458;9.940;2023-07-02T01:56:48;14.20;98.60
9271;DHT22;4673;53.458;9.940;2023-07-02T01:59:14;14.20;98.60
9271;DHT22;4673;53.458;9.940;2023-07-02T02:01:39;14.20;98.70
9271;DHT22;4673;53.458;9.940;2023-07-02T02:04:09;14.10;98.80
9271;DHT22;4673;53.458;9.940;2023-07-02T02:06:35;14.20;99.00
9271;DHT22;4673;53.458;9.940;2023-07-02T02:09:02;14.10;98.90
9271;DHT22;4673;53.458;9.940;2023-07-02T02:11:33;14.10;99.10
9271;DHT22;4673;53.458;9.940;2023-07-02T02:13:59;14.10;99.00
9271;DHT22;4673;53.458;9.940;2023-07-02T02:16:27;14.10;99.10
9271;DHT22;4673;53.458;9.940;2023-07-02T02:18:53;14.10;99.00
9271;DHT22;4673;53.458;9.940;2023-07-02T02:21:19;14.10;99.00
9271;DHT22;4673;53.458;9.940;2023-07-02T02:23:45;14.00;99.20
9271;DHT22;4673;53.458;9.940;2023-07-02T02:26:11;14.10;99.50
9271;DHT22;4673;53.458;9.940;2023-07-02T02:28:36;14.20;99.40
9271;DHT22;4673;53.458;9.940;2023-07-02T02:31:02;14.20;99.30
9271;DHT22;4673;53.458;9.940;2023-07-02T02:33:28;14.20;99.10
9271;DHT22;4673;53.458;9.940;2023-07-02T02:35:54;14.30;99.20
9271;DHT22;4673;53.458;9.940;2023-07-02T02:38:19;14.30;99.10
9271;DHT22;4673;53.458;9.940;2023-07-02T02:40:45;14.30;99.00
9271;DHT22;4673;53.458;9.940;2023-07-02T02:43:11;14.30;98.80
9271;DHT22;4673;53.458;9.940;2023-07-02T02:45:36;14.40;98.70
9271;DHT22;4673;53.458;9.940;2023-07-02T02:48:02;14.30;98.30
9271;DHT22;4673;53.458;9.940;2023-07-02T02:50:28;14.30;98.10
9271;DHT22;4673;53.458;9.940;2023-07-02T02:52:53;14.40;98.00
9271;DHT22;4673;53.458;9.940;2023-07-02T02:55:19;14.30;97.80
9271;DHT22;4673;53.458;9.940;2023-07-02T02:57:44;14.20;97.70
9271;DHT22;4673;53.458;9.940;2023-07-02T03:00:10;14.20;97.60
9271;DHT22;4673;53.458;9.940;2023-07-02T03:02:37;14.10;97.70
9271;DHT22;4673;53.458;9.940;2023-07-02T03:05:04;14.00;97.70
9271;DHT22;4673;53.458;9.940;2023-07-02T03:07:31;14.00;98.00
9271;DHT22;4673;53.458;9.940;2023-07-02T03:09:57;14.00;98.10
9271;DHT22;4673;53.458;9.940;2023-07-02T03:12:24;14.00;98.10
9271;DHT22;4673;53.458;9.940;2023-07-02T03:14:50;14.00;98.10
9271;DHT22;4673;53.458;9.940;2023-07-02T03:17:20;13.90;98.00
9271;DHT22;4673;53.458;9.940;2023-07-02T03:19:45;13.90;98.10
9271;DHT22;4673;53.458;9.940;2023-07-02T03:22:12;13.90;98.20
9271;DHT22;4673;53.458;9.940;2023-07-02T03:24:37;13.90;98.20
9271;DHT22;4673;53.458;9.940;2023-07-02T03:27:03;13.90;98.40
9271;DHT22;4673;53.458;9.940;2023-07-02T03:29:29;13.90;98.20
9271;DHT22;4673;53.458;9.940;2023-07-02T03:31:55;13.90;98.20
9271;DHT22;4673;53.458;9.940;2023-07-02T03:34:20;13.90;98.30
9271;DHT22;4673;53.458;9.940;2023-07-02T03:36:48;13.90;98.20
9271;DHT22;4673;53.458;9.940;2023-07-02T03:39:13;13.90;97.90
9271;DHT22;4673;53.458;9.940;2023-07-02T03:41:39;13.90;98.00
9271;DHT22;4673;53.458;9.940;2023-07-02T03:44:05;14.00;97.70
9271;DHT22;4673;53.458;9.940;2023-07-02T03:46:31;14.00;97.60
9271;DHT22;4673;53.458;9.940;2023-07-02T03:48:57;14.10;97.60
9271;DHT22;4673;53.458;9.940;2023-07-02T03:51:23;14.10;97.20
9271;DHT22;4673;53.458;9.940;2023-07-02T03:53:49;14.10;96.70
9271;DHT22;4673;53.458;9.940;2023-07-02T03:56:14;14.20;96.30
9271;DHT22;4673;53.458;9.940;2023-07-02T03:58:40;14.20;96.10
9271;DHT22;4673;53.458;9.940;2023-07-02T04:01:06;14.30;96.10
9271;DHT22;4673;53.458;9.940;2023-07-02T04:03:32;14.40;95.40
9271;DHT22;4673;53.458;9.940;2023-07-02T04:05:57;14.50;94.90
9271;DHT22;4673;53.458;9.940;2023-07-02T04:08:23;14.50;94.20
9271;DHT22;4673;53.458;9.940;2023-07-02T04:10:50;14.50;93.30
9271;DHT22;4673;53.458;9.940;2023-07-02T04:13:16;14.60;93.00
9271;DHT22;4673;53.458;9.940;2023-07-02T04:15:42;14.60;92.70
9271;DHT22;4673;53.458;9.940;2023-07-02T04:18:08;14.60;92.20
9271;DHT22;4673;53.458;9.940;2023-07-02T04:20:33;14.70;92.20
9271;DHT22;4673;53.458;9.940;2023-07-02T04:22:59;14.70;91.40
9271;DHT22;4673;53.458;9.940;2023-07-02T04:25:25;14.70;90.60
9271;DHT22;4673;53.458;9.940;2023-07-02T04:27:51;14.80;90.20
9271;DHT22;4673;53.458;9.940;2023-07-02T04:30:21;14.80;89.80
9271;DHT22;4673;53.458;9.940;2023-07-02T04:32:47;14.90;89.60
9271;DHT22;4673;53.458;9.940;2023-07-02T04:35:13;15.00;89.30
9271;DHT22;4673;53.458;9.940;2023-07-02T04:37:38;15.10;88.20
9271;DHT22;4673;53.458;9.940;2023-07-02T04:40:05;15.20;87.50
9271;DHT22;4673;53.458;9.940;2023-07-02T04:42:39;15.40;86.20
9271;DHT22;4673;53.458;9.940;2023-07-02T04:45:05;15.40;84.80
9271;DHT22;4673;53.458;9.940;2023-07-02T04:47:31;15.50;84.20
9271;DHT22;4673;53.458;9.940;2023-07-02T04:49:57;15.60;83.10
9271;DHT22;4673;53.458;9.940;2023-07-02T04:52:23;15.70;82.70
9271;DHT22;4673;53.458;9.940;2023-07-02T04:54:49;15.70;82.10
9271;DHT22;4673;53.458;9.940;2023-07-02T04:57:15;16.00;80.70
9271;DHT22;4673;53.458;9.940;2023-07-02T04:59:44;16.00;79.60
9271;DHT22;4673;53.458;9.940;2023-07-02T05:02:10;16.00;78.90
9271;DHT22;4673;53.458;9.940;2023-07-02T05:04:36;15.90;79.10
9271;DHT22;4673;53.458;9.940;2023-07-02T05:07:03;16.00;78.70
9271;DHT22;4673;53.458;9.940;2023-07-02T05:09:29;16.00;78.30
9271;DHT22;4673;53.458;9.940;2023-07-02T05:11:55;15.90;78.50
9271;DHT22;4673;53.458;9.940;2023-07-02T05:14:21;15.90;78.10
9271;DHT22;4673;53.458;9.940;2023-07-02T05:16:48;15.80;78.20
9271;DHT22;4673;53.458;9.940;2023-07-02T05:19:14;15.80;78.00
9271;DHT22;4673;53.458;9.940;2023-07-02T05:21:40;15.80;78.00
9271;DHT22;4673;53.458;9.940;2023-07-02T05:24:06;15.80;78.00
9271;DHT22;4673;53.458;9.940;2023-07-02T05:26:33;15.80;77.50
9271;DHT22;4673;53.458;9.940;2023-07-02T05:28:58;15.90;77.40
9271;DHT22;4673;53.458;9.940;2023-07-02T05:31:24;15.80;77.20
9271;DHT22;4673;53.458;9.940;2023-07-02T05:33:50;15.80;77.20
9271;DHT22;4673;53.458;9.940;2023-07-02T05:36:15;15.90;77.50
9271;DHT22;4673;53.458;9.940;2023-07-02T05:38:41;16.00;77.20
9271;DHT22;4673;53.458;9.940;2023-07-02T05:41:07;16.00;76.40
9271;DHT22;4673;53.458;9.940;2023-07-02T05:43:32;16.00;76.40
9271;DHT22;4673;53.458;9.940;2023-07-02T05:45:58;16.00;76.70
9271;DHT22;4673;53.458;9.940;2023-07-02T05:48:28;16.10;76.50
9271;DHT22;4673;53.458;9.940;2023-07-02T05:50:54;16.10;76.20
9271;DHT22;4673;53.458;9.940;2023-07-02T05:53:20;16.20;76.50
9271;DHT22;4673;53.458;9.940;2023-07-02T05:55:46;16.30;75.40
9271;DHT22;4673;53.458;9.940;2023-07-02T05:58:12;16.30;75.40
9271;DHT22;4673;53.458;9.940;2023-07-02T06:00:38;16.40;74.50
9271;DHT22;4673;53.458;9.940;2023-07-02T06:03:07;16.50;74.30
9271;DHT22;4673;53.458;9.940;2023-07-02T06:05:32;16.50;73.80
9271;DHT22;4673;53.458;9.940;2023-07-02T06:07:58;16.60;73.20
9271;DHT22;4673;53.458;9.940;2023-07-02T06:10:24;16.60;72.30
9271;DHT22;4673;53.458;9.940;2023-07-02T06:12:49;16.60;71.70
9271;DHT22;4673;53.458;9.940;2023-07-02T06:15:15;16.60;72.50
9271;DHT22;4673;53.458;9.940;2023-07-02T06:17:41;16.70;72.60
9271;DHT22;4673;53.458;9.940;2023-07-02T06:20:07;16.70;72.00
9271;DHT22;4673;53.458;9.940;2023-07-02T06:22:33;16.80;71.40
9271;DHT22;4673;53.458;9.940;2023-07-02T06:24:58;16.80;71.10
9271;DHT22;4673;53.458;9.940;2023-07-02T06:27:24;16.90;70.80
9271;DHT22;4673;53.458;9.940;2023-07-02T06:29:50;16.90;70.10
9271;DHT22;4673;53.458;9.940;2023-07-02T06:32:17;16.90;70.30
9271;DHT22;4673;53.458;9.940;2023-07-02T06:34:42;17.00;69.60
9271;DHT22;4673;53.458;9.940;2023-07-02T06:37:08;17.00;69.10
9271;DHT22;4673;53.458;9.940;2023-07-02T06:39:34;16.90;69.00
9271;DHT22;4673;53.458;9.940;2023-07-02T06:41:59;16.90;69.30
9271;DHT22;4673;53.458;9.940;2023-07-02T06:44:25;17.10;69.30
9271;DHT22;4673;53.458;9.940;2023-07-02T06:46:50;17.10;69.30
9271;DHT22;4673;53.458;9.940;2023-07-02T06:49:16;17.20;69.40
9271;DHT22;4673;53.458;9.940;2023-07-02T06:51:42;17.30;68.90
9271;DHT22;4673;53.458;9.940;2023-07-02T06:54:07;17.40;68.50
9271;DHT22;4673;53.458;9.940;2023-07-02T06:56:33;17.40;66.40
9271;DHT22;4673;53.458;9.940;2023-07-02T06:59:00;17.50;66.00
9271;DHT22;4673;53.458;9.940;2023-07-02T07:01:25;17.50;64.90
9271;DHT22;4673;53.458;9.940;2023-07-02T07:03:51;17.50;65.20
9271;DHT22;4673;53.458;9.940;2023-07-02T07:06:17;17.50;64.50
9271;DHT22;4673;53.458;9.940;2023-07-02T07:08:42;17.50;64.50
9271;DHT22;4673;53.458;9.940;2023-07-02T07:11:08;17.60;64.20
9271;DHT22;4673;53.458;9.940;2023-07-02T07:13:34;17.70;63.90
9271;DHT22;4673;53.458;9.940;2023-07-02T07:15:59;17.90;63.10
9271;DHT22;4673;53.458;9.940;2023-07-02T07:18:25;18.10;60.70
9271;DHT22;4673;53.458;9.940;2023-07-02T07:20:51;18.40;60.00
9271;DHT22;4673;53.458;9.940;2023-07-02T07:23:18;18.70;58.10
9271;DHT22;4673;53.458;9.940;2023-07-02T07:25:44;18.90;55.40
9271;DHT22;4673;53.458;9.940;2023-07-02T07:28:10;18.90;53.90
9271;DHT22;4673;53.458;9.940;2023-07-02T07:30:43;18.80;54.00
9271;DHT22;4673;53.458;9.940;2023-07-02T07:33:10;18.60;55.30
9271;DHT22;4673;53.458;9.940;2023-07-02T07:35:36;18.40;54.00
9271;DHT22;4673;53.458;9.940;2023-07-02T07:38:02;18.20;54.50
9271;DHT22;4673;53.458;9.940;2023-07-02T07:40:28;18.30;55.70
9271;DHT22;4673;53.458;9.940;2023-07-02T07:42:54;18.40;55.60
9271;DHT22;4673;53.458;9.940;2023-07-02T07:45:20;18.50;54.40
9271;DHT22;4673;53.458;9.940;2023-07-02T07:47:45;18.40;52.20
9271;DHT22;4673;53.458;9.940;2023-07-02T07:50:11;18.50;51.30
9271;DHT22;4673;53.458;9.940;2023-07-02T07:52:38;18.70;50.40
9271;DHT22;4673;53.458;9.940;2023-07-02T07:55:07;18.80;48.80
9271;DHT22;4673;53.458;9.940;2023-07-02T07:57:34;18.80;48.30
9271;DHT22;4673;53.458;9.940;2023-07-02T08:00:01;18.70;48.80
9271;DHT22;4673;53.458;9.940;2023-07-02T08:02:27;18.50;48.80
9271;DHT22;4673;53.458;9.940;2023-07-02T08:04:52;18.50;50.20
9271;DHT22;4673;53.458;9.940;2023-07-02T08:07:18;18.40;49.60
9271;DHT22;4673;53.458;9.940;2023-07-02T08:09:44;18.50;48.70
9271;DHT22;4673;53.458;9.940;2023-07-02T08:12:10;18.70;46.10
9271;DHT22;4673;53.458;9.940;2023-07-02T08:14:35;18.90;42.00
9271;DHT22;4673;53.458;9.940;2023-07-02T08:17:01;19.00;43.10
9271;DHT22;4673;53.458;9.940;2023-07-02T08:19:26;19.00;41.20
9271;DHT22;4673;53.458;9.940;2023-07-02T08:21:52;19.30;39.20
9271;DHT22;4673;53.458;9.940;2023-07-02T08:24:18;19.50;39.80
9271;DHT22;4673;53.458;9.940;2023-07-02T08:26:43;19.60;38.20
9271;DHT22;4673;53.458;9.940;2023-07-02T08:29:10;19.70;36.90
9271;DHT22;4673;53.458;9.940;2023-07-02T08:31:36;19.50;34.60
9271;DHT22;4673;53.458;9.940;2023-07-02T08:34:02;19.70;34.50
9271;DHT22;4673;53.458;9.940;2023-07-02T08:36:28;19.80;30.40
9271;DHT22;4673;53.458;9.940;2023-07-02T08:38:53;19.70;30.90
9271;DHT22;4673;53.458;9.940;2023-07-02T08:41:20;19.70;30.40
9271;DHT22;4673;53.458;9.940;2023-07-02T08:43:46;19.70;29.10
9271;DHT22;4673;53.458;9.940;2023-07-02T08:46:15;19.70;30.80
9271;DHT22;4673;53.458;9.940;2023-07-02T08:48:41;19.80;30.20
9271;DHT22;4673;53.458;9.940;2023-07-02T08:51:07;19.80;25.20
9271;DHT22;4673;53.458;9.940;2023-07-02T08:53:33;19.70;24.50
9271;DHT22;4673;53.458;9.940;2023-07-02T08:56:00;19.60;25.20
9271;DHT22;4673;53.458;9.940;2023-07-02T08:58:26;19.60;25.20
9271;DHT22;4673;53.458;9.940;2023-07-02T09:03:34;19.60;27.10
9271;DHT22;4673;53.458;9.940;2023-07-02T09:06:00;19.60;26.00
9271;DHT22;4673;53.458;9.940;2023-07-02T09:08:26;19.70;27.40
9271;DHT22;4673;53.458;9.940;2023-07-02T09:10:53;19.90;26.80
9271;DHT22;4673;53.458;9.940;2023-07-02T09:13:19;20.20;25.10
9271;DHT22;4673;53.458;9.940;2023-07-02T09:15:44;20.30;22.90
9271;DHT22;4673;53.458;9.940;2023-07-02T09:18:17;20.50;21.40
9271;DHT22;4673;53.458;9.940;2023-07-02T09:20:43;20.80;23.30
9271;DHT22;4673;53.458;9.940;2023-07-02T09:23:09;21.00;23.00
9271;DHT22;4673;53.458;9.940;2023-07-02T09:25:38;21.10;23.10
9271;DHT22;4673;53.458;9.940;2023-07-02T09:28:20;20.90;21.40
9271;DHT22;4673;53.458;9.940;2023-07-02T09:33:16;20.20;27.80
9271;DHT22;4673;53.458;9.940;2023-07-02T09:35:42;20.30;27.90
9271;DHT22;4673;53.458;9.940;2023-07-02T09:38:09;20.10;27.10
9271;DHT22;4673;53.458;9.940;2023-07-02T09:40:38;20.00;27.10
9271;DHT22;4673;53.458;9.940;2023-07-02T09:43:08;20.00;26.40
9271;DHT22;4673;53.458;9.940;2023-07-02T09:45:34;19.90;26.00
9271;DHT22;4673;53.458;9.940;2023-07-02T09:48:00;19.80;28.40
9271;DHT22;4673;53.458;9.940;2023-07-02T09:50:27;19.70;25.00
9271;DHT22;4673;53.458;9.940;2023-07-02T09:52:54;19.70;26.30
9271;DHT22;4673;53.458;9.940;2023-07-02T09:55:21;19.80;27.30
9271;DHT22;4673;53.458;9.940;2023-07-02T09:57:46;20.00;27.70
9271;DHT22;4673;53.458;9.940;2023-07-02T10:00:13;20.00;25.70
9271;DHT22;4673;53.458;9.940;2023-07-02T10:02:39;20.10;26.60
9271;DHT22;4673;53.458;9.940;2023-07-02T10:05:05;20.10;26.50
9271;DHT22;4673;53.458;9.940;2023-07-02T10:07:31;20.10;26.60
9271;DHT22;4673;53.458;9.940;2023-07-02T10:10:00;20.20;27.30
9271;DHT22;4673;53.458;9.940;2023-07-02T10:12:28;20.40;27.60
9271;DHT22;4673;53.458;9.940;2023-07-02T10:14:56;20.60;25.70
9271;DHT22;4673;53.458;9.940;2023-07-02T10:17:26;20.80;25.30
9271;DHT22;4673;53.458;9.940;2023-07-02T10:19:55;21.10;26.30
9271;DHT22;4673;53.458;9.940;2023-07-02T10:22:21;21.50;25.40
9271;DHT22;4673;53.458;9.940;2023-07-02T10:24:57;21.50;22.40
9271;DHT22;4673;53.458;9.940;2023-07-02T10:27:40;21.40;21.70
9271;DHT22;4673;53.458;9.940;2023-07-02T10:30:07;21.40;18.00
9271;DHT22;4673;53.458;9.940;2023-07-02T10:32:35;21.20;17.20
9271;DHT22;4673;53.458;9.940;2023-07-02T10:35:02;21.50;17.30
9271;DHT22;4673;53.458;9.940;2023-07-02T10:37:38;21.50;17.20
9271;DHT22;4673;53.458;9.940;2023-07-02T10:40:07;21.60;17.30
9271;DHT22;4673;53.458;9.940;2023-07-02T10:42:33;21.70;15.80
9271;DHT22;4673;53.458;9.940;2023-07-02T10:45:02;21.70;15.30
9271;DHT22;4673;53.458;9.940;2023-07-02T10:47:28;21.40;14.10
9271;DHT22;4673;53.458;9.940;2023-07-02T10:49:54;21.10;14.30
9271;DHT22;4673;53.458;9.940;2023-07-02T10:52:20;20.80;14.90
9271;DHT22;4673;53.458;9.940;2023-07-02T10:54:47;20.50;16.20
9271;DHT22;4673;53.458;9.940;2023-07-02T10:57:14;20.40;18.10
9271;DHT22;4673;53.458;9.940;2023-07-02T10:59:46;20.60;21.30
9271;DHT22;4673;53.458;9.940;2023-07-02T11:02:11;20.60;18.90
9271;DHT22;4673;53.458;9.940;2023-07-02T11:04:37;20.70;20.70
9271;DHT22;4673;53.458;9.940;2023-07-02T11:07:04;20.90;15.60
9271;DHT22;4673;53.458;9.940;2023-07-02T11:09:30;20.80;16.10
9271;DHT22;4673;53.458;9.940;2023-07-02T11:11:56;20.80;16.90
9271;DHT22;4673;53.458;9.940;2023-07-02T11:14:37;20.70;18.90
9271;DHT22;4673;53.458;9.940;2023-07-02T11:17:06;20.80;18.40
9271;DHT22;4673;53.458;9.940;2023-07-02T11:19:35;20.70;15.50
9271;DHT22;4673;53.458;9.940;2023-07-02T11:22:01;20.70;14.60
9271;DHT22;4673;53.458;9.940;2023-07-02T11:24:35;20.80;13.70
9271;DHT22;4673;53.458;9.940;2023-07-02T11:27:03;21.20;18.00
9271;DHT22;4673;53.458;9.940;2023-07-02T11:29:34;21.70;12.40
9271;DHT22;4673;53.458;9.940;2023-07-02T11:32:12;21.90;10.10
9271;DHT22;4673;53.458;9.940;2023-07-02T11:34:39;22.00;8.90
9271;DHT22;4673;53.458;9.940;2023-07-02T11:37:06;22.10;8.10
9271;DHT22;4673;53.458;9.940;2023-07-02T11:39:32;22.00;7.70
9271;DHT22;4673;53.458;9.940;2023-07-02T11:41:57;21.80;6.60
9271;DHT22;4673;53.458;9.940;2023-07-02T11:44:23;21.60;8.90
9271;DHT22;4673;53.458;9.940;2023-07-02T11:46:49;21.50;9.30
9271;DHT22;4673;53.458;9.940;2023-07-02T11:49:15;21.50;9.10
9271;DHT22;4673;53.458;9.940;2023-07-02T11:51:41;21.70;11.00
9271;DHT22;4673;53.458;9.940;2023-07-02T11:54:13;21.90;8.90
9271;DHT22;4673;53.458;9.940;2023-07-02T11:56:39;22.20;10.60
9271;DHT22;4673;53.458;9.940;2023-07-02T11:59:07;22.40;8.80
9271;DHT22;4673;53.458;9.940;2023-07-02T12:01:32;22.30;5.70
9271;DHT22;4673;53.458;9.940;2023-07-02T12:03:59;22.00;5.50
9271;DHT22;4673;53.458;9.940;2023-07-02T12:06:25;21.90;6.40
9271;DHT22;4673;53.458;9.940;2023-07-02T12:08:50;22.00;7.10
9271;DHT22;4673;53.458;9.940;2023-07-02T12:11:16;22.00;6.60
9271;DHT22;4673;53.458;9.940;2023-07-02T12:13:42;21.90;7.10
9271;DHT22;4673;53.458;9.940;2023-07-02T12:16:08;21.80;6.70
9271;DHT22;4673;53.458;9.940;2023-07-02T12:18:34;21.30;8.40
9271;DHT22;4673;53.458;9.940;2023-07-02T12:20:59;21.10;10.30
9271;DHT22;4673;53.458;9.940;2023-07-02T12:23:25;21.00;10.70
9271;DHT22;4673;53.458;9.940;2023-07-02T12:25:51;21.10;12.00
9271;DHT22;4673;53.458;9.940;2023-07-02T12:28:17;21.20;12.40
9271;DHT22;4673;53.458;9.940;2023-07-02T12:30:42;21.40;10.60
9271;DHT22;4673;53.458;9.940;2023-07-02T12:33:08;21.70;10.10
9271;DHT22;4673;53.458;9.940;2023-07-02T12:35:34;21.80;8.10
9271;DHT22;4673;53.458;9.940;2023-07-02T12:38:00;22.10;6.40
9271;DHT22;4673;53.458;9.940;2023-07-02T12:40:25;22.10;6.50
9271;DHT22;4673;53.458;9.940;2023-07-02T12:42:51;22.20;5.10
9271;DHT22;4673;53.458;9.940;2023-07-02T12:45:17;22.10;5.30
9271;DHT22;4673;53.458;9.940;2023-07-02T12:47:43;22.00;5.50
9271;DHT22;4673;53.458;9.940;2023-07-02T12:50:10;21.80;6.30
9271;DHT22;4673;53.458;9.940;2023-07-02T12:52:36;21.60;7.00
9271;DHT22;4673;53.458;9.940;2023-07-02T12:55:01;21.30;8.00
9271;DHT22;4673;53.458;9.940;2023-07-02T12:57:28;21.20;9.40
9271;DHT22;4673;53.458;9.940;2023-07-02T12:59:54;21.30;10.30
9271;DHT22;4673;53.458;9.940;2023-07-02T13:02:21;21.40;11.50
9271;DHT22;4673;53.458;9.940;2023-07-02T13:04:46;21.60;11.60
9271;DHT22;4673;53.458;9.940;2023-07-02T13:07:12;21.70;9.40
9271;DHT22;4673;53.458;9.940;2023-07-02T13:09:38;21.60;8.30
9271;DHT22;4673;53.458;9.940;2023-07-02T13:12:04;21.60;8.80
9271;DHT22;4673;53.458;9.940;2023-07-02T13:14:30;21.60;9.10
9271;DHT22;4673;53.458;9.940;2023-07-02T13:16:56;21.50;9.40
9271;DHT22;4673;53.458;9.940;2023-07-02T13:19:24;21.30;11.20
9271;DHT22;4673;53.458;9.940;2023-07-02T13:21:50;21.20;13.70
9271;DHT22;4673;53.458;9.940;2023-07-02T13:24:15;21.20;12.60
9271;DHT22;4673;53.458;9.940;2023-07-02T13:26:41;21.40;12.80
9271;DHT22;4673;53.458;9.940;2023-07-02T13:29:07;21.40;12.60
9271;DHT22;4673;53.458;9.940;2023-07-02T13:31:32;21.60;13.10
9271;DHT22;4673;53.458;9.940;2023-07-02T13:33:58;21.50;12.80
9271;DHT22;4673;53.458;9.940;2023-07-02T13:36:24;21.30;11.70
9271;DHT22;4673;53.458;9.940;2023-07-02T13:38:50;21.20;13.80
9271;DHT22;4673;53.458;9.940;2023-07-02T13:41:15;21.20;14.60
9271;DHT22;4673;53.458;9.940;2023-07-02T13:43:41;21.20;13.80
9271;DHT22;4673;53.458;9.940;2023-07-02T13:46:06;21.10;13.50
9271;DHT22;4673;53.458;9.940;2023-07-02T13:48:32;21.20;14.00
9271;DHT22;4673;53.458;9.940;2023-07-02T13:50:58;21.10;14.50
9271;DHT22;4673;53.458;9.940;2023-07-02T13:53:23;21.00;12.90
9271;DHT22;4673;53.458;9.940;2023-07-02T13:55:49;20.80;12.30
9271;DHT22;4673;53.458;9.940;2023-07-02T13:58:15;20.80;13.40
9271;DHT22;4673;53.458;9.940;2023-07-02T14:00:40;20.80;13.90
9271;DHT22;4673;53.458;9.940;2023-07-02T14:03:06;20.80;13.10
9271;DHT22;4673;53.458;9.940;2023-07-02T14:05:32;21.00;14.10
9271;DHT22;4673;53.458;9.940;2023-07-02T14:07:58;21.00;12.90
9271;DHT22;4673;53.458;9.940;2023-07-02T14:10:24;21.20;13.70
9271;DHT22;4673;53.458;9.940;2023-07-02T14:12:50;21.60;12.80
9271;DHT22;4673;53.458;9.940;2023-07-02T14:15:16;21.60;11.90
9271;DHT22;4673;53.458;9.940;2023-07-02T14:17:41;21.30;11.30
9271;DHT22;4673;53.458;9.940;2023-07-02T14:20:09;21.10;10.60
9271;DHT22;4673;53.458;9.940;2023-07-02T14:22:35;21.30;12.50
9271;DHT22;4673;53.458;9.940;2023-07-02T14:25:00;21.40;11.60
9271;DHT22;4673;53.458;9.940;2023-07-02T14:27:26;21.40;11.30
9271;DHT22;4673;53.458;9.940;2023-07-02T14:29:52;21.40;11.30
9271;DHT22;4673;53.458;9.940;2023-07-02T14:32:17;21.40;12.30
9271;DHT22;4673;53.458;9.940;2023-07-02T14:34:43;21.20;12.80
9271;DHT22;4673;53.458;9.940;2023-07-02T14:37:09;21.20;11.50
9271;DHT22;4673;53.458;9.940;2023-07-02T14:39:35;21.20;11.40
9271;DHT22;4673;53.458;9.940;2023-07-02T14:42:00;21.10;12.00
9271;DHT22;4673;53.458;9.940;2023-07-02T14:44:26;21.20;12.50
9271;DHT22;4673;53.458;9.940;2023-07-02T14:46:52;21.30;9.90
9271;DHT22;4673;53.458;9.940;2023-07-02T14:49:18;21.10;7.80
9271;DHT22;4673;53.458;9.940;2023-07-02T14:51:44;21.00;8.70
9271;DHT22;4673;53.458;9.940;2023-07-02T14:54:10;21.10;10.90
9271;DHT22;4673;53.458;9.940;2023-07-02T14:56:35;21.20;7.60
9271;DHT22;4673;53.458;9.940;2023-07-02T14:59:03;20.80;7.40
9271;DHT22;4673;53.458;9.940;2023-07-02T15:01:29;20.70;10.40
9271;DHT22;4673;53.458;9.940;2023-07-02T15:03:55;20.70;10.30
9271;DHT22;4673;53.458;9.940;2023-07-02T15:06:21;20.70;10.10
9271;DHT22;4673;53.458;9.940;2023-07-02T15:08:47;20.70;9.90
9271;DHT22;4673;53.458;9.940;2023-07-02T15:11:13;20.70;9.90
9271;DHT22;4673;53.458;9.940;2023-07-02T15:13:39;20.80;9.70
9271;DHT22;4673;53.458;9.940;2023-07-02T15:16:07;21.20;10.20
9271;DHT22;4673;53.458;9.940;2023-07-02T15:18:33;21.20;8.10
9271;DHT22;4673;53.458;9.940;2023-07-02T15:20:58;21.10;9.70
9271;DHT22;4673;53.458;9.940;2023-07-02T15:23:25;21.00;10.20
9271;DHT22;4673;53.458;9.940;2023-07-02T15:26:04;20.90;10.40
9271;DHT22;4673;53.458;9.940;2023-07-02T15:28:31;21.00;10.90
9271;DHT22;4673;53.458;9.940;2023-07-02T15:30:59;21.10;10.10
9271;DHT22;4673;53.458;9.940;2023-07-02T15:33:25;20.90;9.00
9271;DHT22;4673;53.458;9.940;2023-07-02T15:35:51;20.80;11.00
9271;DHT22;4673;53.458;9.940;2023-07-02T15:38:17;20.80;12.30
9271;DHT22;4673;53.458;9.940;2023-07-02T15:40:45;20.70;12.60
9271;DHT22;4673;53.458;9.940;2023-07-02T15:43:11;20.70;13.10
9271;DHT22;4673;53.458;9.940;2023-07-02T15:45:37;20.80;13.80
9271;DHT22;4673;53.458;9.940;2023-07-02T15:48:02;20.90;12.80
9271;DHT22;4673;53.458;9.940;2023-07-02T15:50:28;20.90;12.90
9271;DHT22;4673;53.458;9.940;2023-07-02T15:52:54;20.90;11.60
9271;DHT22;4673;53.458;9.940;2023-07-02T15:55:20;20.90;12.30
9271;DHT22;4673;53.458;9.940;2023-07-02T15:57:46;21.10;12.10
9271;DHT22;4673;53.458;9.940;2023-07-02T16:00:13;21.10;10.70
9271;DHT22;4673;53.458;9.940;2023-07-02T16:02:41;20.90;10.50
9271;DHT22;4673;53.458;9.940;2023-07-02T16:05:08;20.70;10.50
9271;DHT22;4673;53.458;9.940;2023-07-02T16:07:34;20.50;11.50